Time;durP1;ratioP1;P1;durP2;ratioP2;P2;SDS_P1;SDS_P2;PMS_P1;PMS_P2;Temp;Humidity;BMP_temperature;BMP_pressure;BME280_temperature;BME280_humidity;BME280_pressure;Samples;Min_cycle;Max_cycle;Signal;HPM_P1;HPM_P2
2022/06/22 00:01:21;;;;;;;6.27;4.90;;;22.50;92.50;;;21.84;64.12;96790.22;5037806;28;20883;-76
2022/06/22 00:03:50;;;;;;;7.00;4.95;;;22.50;92.40;;;21.82;64.17;96792.47;5035246;28;20420;-76
2022/06/22 00:06:31;;;;;;;7.35;5.07;;;22.40;92.40;;;21.83;64.23;96784.06;5034105;28;20407;-76
2022/06/22 00:08:59;;;;;;;9.27;5.03;;;22.40;92.60;;;21.83;64.42;96777.88;5037794;28;20889;-76
2022/06/22 00:11:26;;;;;;;8.98;5.18;;;22.40;92.80;;;21.83;64.38;96772.50;5037917;28;20442;-76
2022/06/22 00:13:57;;;;;;;8.83;4.87;;;22.40;92.70;;;21.81;64.37;96767.44;5039265;28;20410;-76
2022/06/22 00:16:28;;;;;;;9.15;4.60;;;22.40;92.70;;;21.83;64.17;96749.03;5034353;28;20409;-76
2022/06/22 00:18:55;;;;;;;8.25;4.88;;;22.40;92.70;;;21.81;64.26;96739.69;5035838;28;20458;-76
2022/06/22 00:21:27;;;;;;;6.95;4.57;;;22.40;92.70;;;21.77;64.35;96728.03;5035544;28;20420;-76
2022/06/22 00:23:58;;;;;;;6.10;4.90;;;22.40;92.70;;;21.75;64.56;96723.00;5039118;28;20409;-76
2022/06/22 00:26:32;;;;;;;7.22;4.72;;;22.40;93.00;;;21.76;64.90;96721.09;5034205;28;20417;-76
2022/06/22 00:29:22;;;;;;;7.13;4.80;;;22.40;93.30;;;21.75;65.09;96717.59;5051256;28;20427;-76
2022/06/22 00:32:02;;;;;;;6.68;4.72;;;22.40;93.60;;;21.75;65.29;96714.13;5034619;28;20917;-76
2022/06/22 00:34:31;;;;;;;4.93;4.40;;;22.40;93.80;;;21.72;65.33;96707.53;5034766;28;20409;-77
2022/06/22 00:37:01;;;;;;;5.70;4.38;;;22.30;94.00;;;21.70;65.38;96698.19;5036612;28;20762;-76
2022/06/22 00:39:40;;;;;;;7.68;4.68;;;22.30;94.10;;;21.71;65.23;96702.47;5036992;28;20410;-76
2022/06/22 00:42:27;;;;;;;6.90;4.70;;;22.30;93.90;;;21.65;65.34;96698.44;5035134;28;20407;-77
2022/06/22 00:45:00;;;;;;;8.30;5.30;;;22.30;94.00;;;21.63;65.30;96702.25;5040954;28;20454;-76
2022/06/22 00:47:31;;;;;;;6.93;4.93;;;22.20;94.10;;;21.58;65.53;96701.69;5040079;28;20916;-77
2022/06/22 00:50:02;;;;;;;9.38;4.38;;;22.20;94.30;;;21.52;65.66;96711.13;5041527;28;20409;-77
2022/06/22 00:52:37;;;;;;;6.50;4.82;;;22.10;94.50;;;21.48;65.63;96723.69;5039129;28;20403;-77
2022/06/22 00:55:18;;;;;;;6.30;4.60;;;22.10;94.70;;;21.45;66.10;96732.44;5038661;28;20418;-76
2022/06/22 00:57:53;;;;;;;6.77;4.87;;;22.10;95.00;;;21.43;66.33;96732.75;5041241;28;20405;-74
2022/06/22 01:00:22;;;;;;;5.57;4.43;;;22.10;95.40;;;21.41;66.73;96737.72;5039919;28;20430;-76
2022/06/22 01:02:54;;;;;;;6.80;5.03;;;22.00;95.70;;;21.41;66.72;96743.09;5039273;28;20920;-76
2022/06/22 01:05:28;;;;;;;5.63;4.60;;;22.10;95.90;;;21.41;66.81;96740.41;5040581;28;20409;-76
2022/06/22 01:08:06;;;;;;;7.13;4.78;;;22.00;96.10;;;21.40;67.05;96746.91;5039134;28;20421;-75
2022/06/22 01:10:47;;;;;;;5.65;4.28;;;22.00;96.30;;;21.39;67.19;96748.03;5038795;28;20422;-76
2022/06/22 01:13:19;;;;;;;6.37;4.47;;;22.00;96.60;;;21.40;67.27;96759.59;5036305;28;20403;-76
2022/06/22 01:15:54;;;;;;;8.32;4.88;;;22.00;96.80;;;21.41;66.89;96764.66;5040936;28;20409;-76
2022/06/22 01:18:27;;;;;;;6.53;4.90;;;22.00;96.40;;;21.32;67.08;96763.97;5042767;28;20765;-76
2022/06/22 01:21:04;;;;;;;5.97;4.88;;;22.00;96.60;;;21.29;67.15;96767.31;5038363;28;20416;-76
2022/06/22 01:24:11;;;;;;;9.38;5.30;;;21.90;96.70;;;21.26;67.30;96773.38;5041746;28;20648;-76
2022/06/22 01:27:21;;;;;;;7.53;5.15;;;21.90;96.80;;;21.20;67.35;96767.41;5038701;28;20415;-76
2022/06/22 01:29:51;;;;;;;6.28;4.70;;;21.80;97.10;;;21.16;67.78;96766.53;5037089;28;20409;-76
2022/06/22 01:32:25;;;;;;;6.00;4.90;;;21.80;97.50;;;21.14;68.18;96755.25;5036847;28;20897;-74
2022/06/22 01:34:56;;;;;;;7.43;4.82;;;21.80;98.00;;;21.09;68.44;96760.88;5039325;28;20446;-77
2022/06/22 01:37:26;;;;;;;7.72;5.00;;;21.70;98.20;;;21.04;68.50;96763.78;5038100;28;21006;-77
2022/06/22 01:39:58;;;;;;;9.23;5.03;;;21.70;98.40;;;21.01;68.71;96769.81;5039016;28;20402;-77
2022/06/22 01:42:33;;;;;;;6.25;4.88;;;21.70;98.70;;;20.97;68.60;96768.94;5037026;28;20405;-76
2022/06/22 01:45:04;;;;;;;8.07;5.43;;;21.60;98.80;;;20.96;68.63;96770.03;5042189;28;20892;-76
2022/06/22 01:47:40;;;;;;;7.93;5.47;;;21.60;99.00;;;20.92;68.91;96774.50;5040864;28;20423;-76
2022/06/22 01:50:17;;;;;;;9.07;5.70;;;21.50;99.30;;;20.90;69.01;96767.91;5039491;28;20451;-76
2022/06/22 01:52:57;;;;;;;7.97;5.28;;;21.50;99.50;;;20.88;69.03;96779.00;5040521;28;20418;-76
2022/06/22 01:55:33;;;;;;;7.43;5.10;;;21.50;99.70;;;20.88;69.17;96784.38;5039702;28;20415;-76
2022/06/22 01:58:34;;;;;;;5.82;4.90;;;21.50;99.90;;;20.89;69.46;96769.00;5038353;28;20412;-76
2022/06/22 02:01:10;;;;;;;10.98;5.30;;;21.50;99.90;;;20.89;69.49;96772.50;5038722;28;20405;-76
2022/06/22 02:03:43;;;;;;;10.05;5.55;;;21.50;99.90;;;20.94;69.32;96760.72;5041916;28;20412;-76
2022/06/22 02:09:11;;;;;;;5.90;5.27;;;21.60;99.90;;;21.02;69.65;96731.03;5041027;28;20568;-76
2022/06/22 02:11:44;;;;;;;7.05;5.22;;;21.60;99.90;;;21.07;69.78;96721.94;5041645;28;20473;-76
2022/06/22 02:14:19;;;;;;;6.50;5.00;;;21.70;99.90;;;21.11;69.70;96720.16;5038489;28;20430;-76
2022/06/22 02:16:52;;;;;;;5.82;4.93;;;21.70;99.90;;;21.13;69.54;96734.84;5040047;28;20545;-76
2022/06/22 02:19:18;;;;;;;6.47;5.10;;;21.80;99.90;;;21.14;69.41;96738.31;5039775;28;20779;-76
2022/06/22 02:21:47;;;;;;;6.40;5.15;;;21.80;99.90;;;21.14;69.23;96743.72;5041841;28;21036;-76
2022/06/22 02:24:17;;;;;;;6.35;5.20;;;21.80;99.90;;;21.12;69.12;96736.00;5039638;28;20753;-76
2022/06/22 02:26:50;;;;;;;7.22;5.32;;;21.80;99.90;;;21.11;69.22;96745.19;5039338;28;20819;-76
2022/06/22 02:29:23;;;;;;;8.23;5.32;;;21.70;99.90;;;21.12;69.52;96744.06;5038562;28;20917;-76
2022/06/22 02:31:51;;;;;;;6.97;5.10;;;21.80;99.90;;;21.12;69.73;96738.69;5035478;28;20405;-77
2022/06/22 02:34:18;;;;;;;6.60;4.93;;;21.70;99.90;;;21.11;69.78;96725.56;5038648;28;20415;-76
2022/06/22 02:36:48;;;;;;;7.17;5.40;;;21.80;99.90;;;21.10;69.83;96740.13;5039664;28;20441;-76
2022/06/22 02:39:17;;;;;;;7.50;5.57;;;21.70;99.90;;;21.07;71.51;96755.03;5039962;28;20413;-77
2022/06/22 02:44:34;;;;;;;7.30;5.75;;;21.70;99.90;;;20.97;74.00;96742.03;5034858;28;20456;-76
2022/06/22 02:47:22;;;;;;;8.98;5.72;;;21.60;99.90;;;20.94;74.65;96758.03;5039851;28;20407;-77
2022/06/22 02:49:55;;;;;;;8.45;6.72;;;21.60;99.90;;;20.87;75.41;96755.88;5040526;28;20505;-76
2022/06/22 02:52:25;;;;;;;12.55;7.22;;;21.50;99.90;;;20.80;76.67;96744.88;5041061;28;20507;-76
2022/06/22 02:54:55;;;;;;;8.40;6.53;;;21.40;99.90;;;20.74;77.98;96752.38;5037644;28;20537;-77
2022/06/22 02:57:41;;;;;;;10.00;7.13;;;21.40;99.90;;;20.71;78.62;96752.25;5039144;28;20417;-77
2022/06/22 03:00:09;;;;;;;8.88;6.90;;;21.30;99.90;;;20.69;79.08;96754.47;5035650;28;20447;-76
2022/06/22 03:02:36;;;;;;;10.80;7.03;;;21.30;99.90;;;20.68;78.43;96752.91;5039315;28;20426;-76
2022/06/22 03:05:05;;;;;;;7.88;6.57;;;21.30;99.90;;;20.65;77.94;96746.31;5049459;28;20423;-76
2022/06/22 03:07:35;;;;;;;9.57;6.60;;;21.30;99.90;;;20.62;77.21;96746.94;5032839;28;20501;-77
2022/06/22 03:10:04;;;;;;;7.68;6.35;;;21.30;99.90;;;20.60;76.64;96741.09;5037998;28;20418;-76
2022/06/22 03:12:30;;;;;;;7.22;5.85;;;21.20;99.90;;;20.58;76.49;96737.97;5036292;28;20508;-76
2022/06/22 03:15:01;;;;;;;8.80;6.45;;;21.20;99.90;;;20.55;76.48;96735.94;5037659;28;20411;-77
2022/06/22 03:17:32;;;;;;;7.90;6.10;;;21.20;99.90;;;20.54;76.30;96739.75;5037741;28;20404;-76
2022/06/22 03:20:03;;;;;;;7.88;5.55;;;21.20;99.90;;;20.54;76.35;96736.28;5038802;28;20436;-77
2022/06/22 03:22:33;;;;;;;9.88;6.63;;;21.20;99.90;;;20.55;75.92;96735.16;5036030;28;20547;-76
2022/06/22 03:25:08;;;;;;;7.10;5.82;;;21.20;99.90;;;20.50;75.98;96735.38;5040529;28;20410;-76
2022/06/22 03:27:39;;;;;;;7.07;5.90;;;21.20;99.90;;;20.48;75.89;96733.00;5038076;28;20466;-77
2022/06/22 03:30:12;;;;;;;9.45;6.93;;;21.10;99.90;;;20.45;75.74;96733.66;5037921;28;20474;-76
2022/06/22 03:32:48;;;;;;;9.43;6.10;;;21.10;99.90;;;20.41;75.56;96735.44;5039192;28;20407;-76
2022/06/22 03:35:21;;;;;;;11.55;6.22;;;21.10;99.90;;;20.36;75.41;96731.06;5038558;28;20473;-74
2022/06/22 03:37:55;;;;;;;8.32;6.60;;;21.00;99.90;;;20.32;75.17;96727.41;5035514;28;20414;-75
2022/06/22 03:40:27;;;;;;;10.20;6.97;;;21.00;99.90;;;20.26;75.25;96727.94;5028821;28;20415;-76
2022/06/22 03:43:13;;;;;;;7.63;6.07;;;20.90;99.90;;;20.19;75.43;96723.09;5026683;28;20423;-76
2022/06/22 03:45:44;;;;;;;6.70;5.63;;;20.90;99.90;;;20.16;75.31;96736.41;5025062;28;20425;-76
2022/06/22 03:48:20;;;;;;;8.07;5.95;;;20.80;99.90;;;20.15;75.21;96745.59;5031207;28;20422;-76
2022/06/22 03:50:53;;;;;;;7.22;5.75;;;20.80;99.90;;;20.16;75.12;96744.47;5033456;28;20409;-75
2022/06/22 03:53:29;;;;;;;8.05;5.38;;;20.80;99.90;;;20.19;74.56;96744.63;5035091;28;20407;-76
2022/06/22 03:56:02;;;;;;;9.18;5.70;;;20.90;99.90;;;20.24;74.15;96749.00;5034349;28;20412;-76
2022/06/22 03:58:28;;;;;;;10.30;5.75;;;20.90;99.90;;;20.23;74.07;96750.88;5029068;28;20450;-75
2022/06/22 04:00:54;;;;;;;9.30;5.65;;;20.90;99.90;;;20.26;73.40;96760.22;5035513;28;20457;-75
2022/06/22 04:03:22;;;;;;;9.52;5.55;;;20.90;99.90;;;20.24;73.16;96754.38;5038680;28;20403;-75
2022/06/22 04:05:53;;;;;;;9.02;5.50;;;20.90;99.90;;;20.23;73.09;96755.47;5053041;28;20420;-75
2022/06/22 04:08:24;;;;;;;7.18;4.90;;;20.90;99.90;;;20.21;72.94;96753.13;5030174;28;20419;-75
2022/06/22 04:10:54;;;;;;;7.00;5.15;;;20.90;99.90;;;20.22;72.67;96753.94;5030868;28;20404;-76
2022/06/22 04:13:28;;;;;;;7.32;4.97;;;20.90;99.90;;;20.24;72.09;96747.09;5037177;28;20409;-75
2022/06/22 04:16:00;;;;;;;7.37;4.97;;;20.90;99.90;;;20.23;71.60;96756.25;5037424;28;20411;-75
2022/06/22 04:18:34;;;;;;;7.80;4.70;;;20.90;99.90;;;20.26;71.56;96758.31;5037438;28;20577;-75
2022/06/22 04:21:04;;;;;;;6.70;4.95;;;20.90;99.90;;;20.28;71.71;96755.31;5036399;28;20407;-76
2022/06/22 04:23:37;;;;;;;9.50;5.75;;;20.90;99.90;;;20.34;71.73;96757.47;5028127;28;20750;-80
2022/06/22 04:26:12;;;;;;;8.75;5.70;;;21.00;99.90;;;20.33;71.82;96758.59;5030877;28;20812;-81
2022/06/22 04:28:43;;;;;;;7.25;5.15;;;20.90;99.90;;;20.32;71.52;96745.44;5018976;28;20417;-80
2022/06/22 04:31:18;;;;;;;7.65;5.03;;;21.00;99.90;;;20.34;71.70;96749.41;5036341;28;20453;-80
2022/06/22 04:33:49;;;;;;;7.93;4.95;;;21.00;99.90;;;20.35;71.60;96747.53;5032898;28;20403;-80
2022/06/22 04:36:22;;;;;;;8.38;5.47;;;21.00;99.90;;;20.37;71.40;96756.06;5028485;28;20440;-80
2022/06/22 04:38:55;;;;;;;6.78;5.22;;;21.00;99.90;;;20.38;71.45;96760.28;5028715;28;20411;-80
2022/06/22 04:41:29;;;;;;;6.65;4.80;;;21.00;99.90;;;20.39;71.53;96757.28;5028310;28;20419;-80
2022/06/22 04:43:57;;;;;;;6.43;5.07;;;21.00;99.90;;;20.45;71.93;96760.53;5029314;28;20399;-80
2022/06/22 04:46:28;;;;;;;7.53;5.40;;;21.10;99.90;;;20.51;72.03;96766.53;5028489;28;20411;-80
2022/06/22 04:49:02;;;;;;;7.72;4.72;;;21.10;99.90;;;20.55;71.98;96773.59;5027982;28;20477;-80
2022/06/22 04:51:34;;;;;;;7.80;4.60;;;21.20;99.90;;;20.59;71.65;96769.13;5028146;28;20417;-80
2022/06/22 04:54:12;;;;;;;6.85;4.60;;;21.20;99.90;;;20.65;71.74;96770.50;5029177;28;20434;-80
2022/06/22 04:56:44;;;;;;;6.80;4.85;;;21.30;99.90;;;20.70;71.66;96780.25;5029514;28;20411;-79
2022/06/22 04:59:14;;;;;;;6.43;5.38;;;21.30;99.90;;;20.78;72.02;96787.47;5037565;28;20469;-78
2022/06/22 05:01:45;;;;;;;7.10;5.25;;;21.30;99.90;;;20.85;72.10;96790.41;5031180;28;20417;-78
2022/06/22 05:04:17;;;;;;;7.18;5.57;;;21.50;99.90;;;20.91;71.90;96780.22;5028873;28;20489;-77
2022/06/22 05:06:53;;;;;;;5.85;4.75;;;21.50;99.90;;;20.95;71.97;96781.91;5028825;28;20464;-78
2022/06/22 05:09:26;;;;;;;6.82;4.85;;;21.50;99.90;;;20.97;72.09;96785.06;5027732;28;20418;-78
2022/06/22 05:11:52;;;;;;;6.15;5.07;;;21.60;99.90;;;21.00;72.08;96783.59;5028499;28;20927;-78
2022/06/22 05:14:23;;;;;;;6.13;5.07;;;21.60;99.90;;;21.02;71.86;96776.00;5028817;28;20443;-77
2022/06/22 05:16:56;;;;;;;6.78;5.00;;;21.60;99.90;;;21.04;72.15;96769.16;5028716;28;20776;-77
2022/06/22 05:19:31;;;;;;;7.30;5.43;;;21.60;99.90;;;21.08;71.95;96775.44;5027938;28;20415;-77
2022/06/22 05:21:58;;;;;;;6.95;5.35;;;21.70;99.90;;;21.13;71.92;96777.13;5028830;28;20423;-76
2022/06/22 05:24:29;;;;;;;9.38;5.18;;;21.70;99.90;;;21.22;71.44;96783.22;5028940;28;20419;-77
2022/06/22 05:27:00;;;;;;;8.05;5.43;;;21.80;99.90;;;21.33;71.55;96789.78;5028811;28;20494;-77
2022/06/22 05:29:32;;;;;;;7.55;5.45;;;21.90;99.90;;;21.45;71.15;96791.69;5028612;28;20522;-77
2022/06/22 05:32:04;;;;;;;6.13;5.35;;;22.00;99.90;;;21.55;70.81;96794.72;5031979;28;20403;-77
2022/06/22 05:34:37;;;;;;;6.43;4.65;;;22.10;99.90;;;21.66;70.21;96800.44;5031992;28;20484;-77
2022/06/22 05:37:08;;;;;;;6.35;4.90;;;22.20;99.90;;;21.78;69.50;96803.16;5032023;28;20418;-77
2022/06/22 05:39:36;;;;;;;6.63;4.70;;;22.30;99.90;;;21.87;68.85;96806.53;5031463;28;20403;-77
2022/06/22 05:42:03;;;;;;;8.18;4.53;;;22.40;99.90;;;21.95;67.95;96807.53;5032148;28;20833;-77
2022/06/22 05:44:30;;;;;;;6.87;4.40;;;22.50;99.90;;;21.99;66.34;96819.22;5031736;28;20797;-77
2022/06/22 05:46:59;;;;;;;6.45;4.30;;;22.60;98.90;;;22.01;65.68;96816.97;5032055;28;20407;-76
2022/06/22 05:49:32;;;;;;;7.95;4.68;;;22.60;98.00;;;22.01;65.65;96811.59;5056622;22;20454;-73
2022/06/22 05:52:09;;;;;;;7.80;4.07;;;22.60;97.60;;;22.03;65.62;96813.94;5051869;28;20500;-72
2022/06/22 05:54:41;;;;;;;6.05;4.20;;;22.60;97.40;;;22.01;65.19;96819.69;5064096;28;20482;-76
2022/06/22 05:57:17;;;;;;;6.80;4.20;;;22.60;96.80;;;22.00;65.14;96816.19;5063674;28;20401;-74
2022/06/22 05:59:49;;;;;;;5.32;4.30;;;22.60;96.80;;;22.02;65.16;96810.47;5058952;28;20420;-75
2022/06/22 06:02:25;;;;;;;7.53;4.20;;;22.60;96.60;;;22.04;64.43;96810.91;5058660;28;20843;-75
2022/06/22 06:05:00;;;;;;;6.82;4.30;;;22.60;95.90;;;22.06;64.45;96821.34;5065302;28;20408;-72
2022/06/22 06:07:33;;;;;;;5.68;4.45;;;22.60;95.60;;;22.07;63.81;96823.72;5062056;28;20421;-73
2022/06/22 06:10:02;;;;;;;7.25;4.53;;;22.60;94.90;;;22.09;63.81;96823.38;5042557;28;20773;-73
2022/06/22 06:12:34;;;;;;;7.50;4.97;;;22.60;94.70;;;22.10;63.83;96822.25;5043733;28;20420;-72
2022/06/22 06:15:04;;;;;;;6.15;4.68;;;22.70;94.70;;;22.11;64.16;96823.78;5060627;28;20757;-72
2022/06/22 06:17:34;;;;;;;9.27;5.53;;;22.60;94.70;;;22.12;63.99;96823.47;5071071;28;20442;-72
2022/06/22 06:20:03;;;;;;;7.63;5.00;;;22.70;94.70;;;22.15;64.11;96827.41;5063398;28;20459;-73
2022/06/22 06:22:34;;;;;;;6.85;5.30;;;22.70;94.80;;;22.18;64.13;96837.50;5056603;28;20417;-73
2022/06/22 06:27:58;;;;;;;8.20;5.30;;;22.70;94.80;;;22.21;64.45;96848.41;5059270;28;20471;-73
2022/06/22 06:30:29;;;;;;;8.02;4.82;;;22.80;95.10;;;22.22;64.72;96844.59;5064014;28;20423;-73
2022/06/22 06:33:04;;;;;;;6.37;5.00;;;22.80;95.20;;;22.23;64.93;96854.25;5060025;28;20410;-72
2022/06/22 06:35:35;;;;;;;8.00;5.07;;;22.80;95.50;;;22.25;65.06;96862.75;5051712;28;20459;-73
2022/06/22 06:38:15;;;;;;;6.93;5.23;;;22.80;95.70;;;22.25;65.30;96864.69;5063389;28;20777;-72
2022/06/22 06:40:50;;;;;;;7.18;5.55;;;22.80;95.90;;;22.26;65.55;96855.47;5063687;28;20416;-72
2022/06/22 06:43:33;;;;;;;8.73;5.75;;;22.80;96.20;;;22.25;65.67;96867.41;5065442;28;20400;-73
2022/06/22 06:46:01;;;;;;;7.63;5.97;;;22.80;96.60;;;22.25;66.04;96870.09;5062644;28;20408;-74
2022/06/22 06:48:30;;;;;;;9.43;5.85;;;22.80;97.00;;;22.24;66.06;96865.81;5059523;28;21042;-73
2022/06/22 06:50:59;;;;;;;8.30;5.45;;;22.80;96.90;;;22.23;66.32;96866.94;5061371;28;20503;-73
2022/06/22 06:53:33;;;;;;;8.52;5.47;;;22.80;97.30;;;22.21;67.77;96867.28;5063262;28;20400;-73
2022/06/22 06:56:06;;;;;;;8.57;5.90;;;22.70;98.70;;;22.17;69.64;96868.28;5070814;28;20873;-73
2022/06/22 06:58:40;;;;;;;7.43;5.70;;;22.70;99.90;;;22.12;71.36;96876.59;5053673;28;20392;-75
2022/06/22 07:01:12;;;;;;;7.60;5.60;;;22.70;99.90;;;22.04;72.39;96872.88;5034776;28;20976;-73
2022/06/22 07:03:41;;;;;;;9.35;6.57;;;22.60;99.90;;;21.96;73.19;96877.28;5066652;28;20462;-75
2022/06/22 07:06:08;;;;;;;13.60;6.43;;;22.50;99.90;;;21.88;72.83;96888.13;5057107;28;20424;-77
2022/06/22 07:08:39;;;;;;;11.40;7.32;;;22.40;99.90;;;21.74;76.03;96885.75;5058230;28;20836;-76
2022/06/22 07:11:13;;;;;;;9.75;7.15;;;22.30;99.90;;;21.52;77.26;96880.78;5054125;28;20441;-75
2022/06/22 07:13:48;;;;;;;10.77;7.40;;;22.10;99.90;;;21.34;79.97;96877.50;5056808;28;20796;-77
2022/06/22 07:16:21;;;;;;;10.60;8.18;;;21.90;99.90;;;21.22;82.25;96875.53;5063930;28;20418;-74
2022/06/22 07:18:52;;;;;;;11.60;8.68;;;21.80;99.90;;;21.13;84.70;96872.13;5065960;28;20482;-75
2022/06/22 07:21:23;;;;;;;10.90;9.20;;;21.80;99.90;;;21.07;87.25;96876.13;5065726;28;20395;-75
2022/06/22 07:23:57;;;;;;;12.20;9.60;;;21.70;99.90;;;21.04;89.44;96879.50;5049909;28;20408;-76
2022/06/22 07:26:34;;;;;;;12.68;10.90;;;21.60;99.90;;;21.01;91.01;96869.38;5059512;28;20420;-74
2022/06/22 07:29:13;;;;;;;14.23;11.07;;;21.60;99.90;;;20.97;92.37;96868.50;5067610;28;20432;-76
2022/06/22 07:31:49;;;;;;;16.13;11.73;;;21.60;99.90;;;20.96;94.52;96866.91;5056320;28;20432;-75
2022/06/22 07:34:22;;;;;;;14.75;12.05;;;21.50;99.90;;;20.96;95.81;96848.06;5061117;28;20750;-74
2022/06/22 07:36:55;;;;;;;16.95;13.50;;;21.60;99.90;;;20.96;96.93;96842.69;5070128;28;20476;-74
2022/06/22 07:39:33;;;;;;;19.58;13.45;;;21.60;99.90;;;20.97;97.66;96843.47;5059968;28;20405;-74
2022/06/22 07:41:59;;;;;;;14.95;13.32;;;21.50;99.90;;;20.96;98.54;96840.00;5057632;28;20455;-76
2022/06/22 07:44:30;;;;;;;17.10;14.18;;;21.60;99.90;;;20.99;99.46;96841.22;5055999;28;20411;-75
2022/06/22 07:47:05;;;;;;;16.67;14.57;;;21.60;99.90;;;21.03;100.00;96842.16;5059240;28;20392;-77
2022/06/22 07:49:39;;;;;;;18.45;13.77;;;21.60;99.90;;;21.09;100.00;96841.59;5057628;28;20417;-75
2022/06/22 07:52:11;;;;;;;15.27;13.33;;;21.70;99.90;;;21.19;100.00;96848.53;5057319;28;20883;-75
2022/06/22 07:54:42;;;;;;;19.55;13.65;;;21.70;99.90;;;21.28;100.00;96848.41;5058760;28;20426;-75
2022/06/22 07:57:19;;;;;;;16.35;13.07;;;21.80;99.90;;;21.40;100.00;96851.16;5061189;28;20412;-75
2022/06/22 07:59:49;;;;;;;16.77;12.68;;;21.90;99.90;;;21.55;100.00;96853.97;5058186;28;20498;-75
2022/06/22 08:02:18;;;;;;;16.70;11.77;;;22.10;99.90;;;21.71;100.00;96856.81;5060928;28;20406;-75
2022/06/22 08:04:53;;;;;;;16.75;11.40;;;22.30;99.90;;;21.84;100.00;96855.69;5060349;28;21050;-75
2022/06/22 08:07:22;;;;;;;17.20;10.32;;;22.40;99.90;;;21.92;100.00;96867.47;5060432;28;20407;-74
2022/06/22 08:10:00;;;;;;;20.23;10.80;;;22.40;99.90;;;21.94;100.00;96873.31;5062198;28;20425;-74
2022/06/22 08:12:39;;;;;;;14.68;10.52;;;22.40;99.90;;;21.94;100.00;96874.13;5059808;28;20444;-74
2022/06/22 08:15:12;;;;;;;15.25;10.00;;;22.40;99.90;;;21.96;99.56;96874.56;5055876;28;20476;-75
2022/06/22 08:17:43;;;;;;;15.95;9.43;;;22.50;99.90;;;21.94;97.83;96873.31;5062380;28;20400;-74
2022/06/22 08:20:13;;;;;;;14.05;8.88;;;22.40;99.90;;;21.87;93.94;96873.09;5059087;28;20414;-74
2022/06/22 08:22:42;;;;;;;11.32;8.75;;;22.40;99.90;;;21.88;93.39;96871.94;5039734;28;20841;-75
2022/06/22 08:25:12;;;;;;;13.65;8.68;;;22.40;99.90;;;21.89;92.66;96871.63;5059767;28;20400;-75
2022/06/22 08:27:39;;;;;;;13.77;8.85;;;22.40;99.90;;;21.89;93.28;96865.44;5059715;28;20406;-74
2022/06/22 08:30:09;;;;;;;11.40;8.70;;;22.40;99.90;;;21.90;93.16;96867.81;5056774;28;20405;-74
2022/06/22 08:32:43;;;;;;;11.48;8.07;;;22.40;99.90;;;21.89;93.35;96870.84;5056358;28;20394;-75
2022/06/22 08:35:17;;;;;;;10.30;8.18;;;22.40;99.90;;;21.87;93.05;96873.88;5057369;28;20992;-75
2022/06/22 08:37:51;;;;;;;10.65;8.07;;;22.40;99.90;;;21.86;93.17;96871.53;5056895;28;20828;-77
2022/06/22 08:40:31;;;;;;;12.20;8.17;;;22.40;99.90;;;21.83;92.46;96870.28;5056875;28;20393;-75
2022/06/22 08:43:05;;;;;;;13.63;8.02;;;22.40;99.90;;;21.83;91.59;96872.19;5057277;28;20500;-77
2022/06/22 08:45:55;;;;;;;10.57;7.72;;;22.40;99.90;;;21.84;91.30;96874.53;5059147;28;20390;-76
2022/06/22 08:48:53;;;;;;;12.67;7.83;;;22.40;99.90;;;21.85;90.55;96872.63;5057409;28;20428;-75
2022/06/22 08:51:48;;;;;;;11.00;8.20;;;22.40;99.90;;;21.86;89.17;96882.31;5058718;28;20773;-76
2022/06/22 08:54:43;;;;;;;12.60;7.60;;;22.40;99.90;;;21.83;85.86;96891.84;5062429;28;20781;-78
2022/06/22 08:57:20;;;;;;;9.02;7.43;;;22.40;99.90;;;21.84;84.35;96884.53;5057898;28;20419;-76
2022/06/22 09:00:15;;;;;;;8.82;7.20;;;22.30;99.90;;;21.88;85.09;96894.28;5057954;28;20431;-75
2022/06/22 09:03:27;;;;;;;11.32;7.60;;;22.40;99.90;;;21.98;84.72;96898.50;5058620;28;20421;-74
2022/06/22 09:06:19;;;;;;;10.63;7.80;;;22.50;99.90;;;22.08;83.76;96894.56;5059834;28;20414;-76
2022/06/22 09:09:33;;;;;;;10.10;6.50;;;22.60;99.90;;;22.19;81.97;96895.69;5065041;28;20413;-75
2022/06/22 09:12:15;;;;;;;10.10;6.60;;;22.70;99.90;;;22.26;79.46;96899.38;5057747;28;20419;-76
2022/06/22 09:15:10;;;;;;;11.63;6.93;;;22.80;99.90;;;22.31;77.00;96901.88;5063992;28;20407;-75
2022/06/22 09:18:05;;;;;;;8.73;6.78;;;22.80;99.90;;;22.38;77.58;96907.50;5061492;28;20406;-76
2022/06/22 09:20:57;;;;;;;11.27;6.55;;;22.90;99.90;;;22.48;78.02;96905.47;5062228;28;20426;-75
2022/06/22 09:23:39;;;;;;;7.90;5.55;;;23.00;99.90;;;22.61;78.14;96905.09;5063674;28;20407;-75
2022/06/22 09:26:16;;;;;;;10.48;5.72;;;23.10;99.90;;;22.72;77.37;96910.78;5062916;28;20411;-74
2022/06/22 09:28:55;;;;;;;13.13;6.72;;;23.20;99.90;;;22.81;75.99;96910.69;5061872;28;20412;-76
2022/06/22 09:31:51;;;;;;;11.30;6.68;;;23.30;99.90;;;22.91;74.81;96918.31;5059495;28;20421;-74
2022/06/22 09:34:55;;;;;;;11.95;6.30;;;23.40;99.90;;;22.95;73.87;96906.50;5065451;28;20435;-74
2022/06/22 09:37:49;;;;;;;11.85;6.70;;;23.50;99.90;;;22.97;71.71;96906.16;5057078;28;20407;-76
2022/06/22 09:40:47;;;;;;;11.57;6.82;;;23.50;99.90;;;23.01;72.40;96901.63;5062531;28;21027;-75
2022/06/22 09:43:45;;;;;;;10.05;6.30;;;23.60;99.90;;;23.04;72.01;96907.13;5070738;28;20399;-75
2022/06/22 09:46:47;;;;;;;8.90;6.47;;;23.60;99.90;;;23.07;72.13;96908.38;5059056;28;20883;-76
2022/06/22 09:49:55;;;;;;;7.85;6.10;;;23.60;99.90;;;23.10;73.64;96897.66;5015919;28;20860;-75
2022/06/22 09:52:50;;;;;;;10.18;6.60;;;23.60;99.90;;;23.09;73.93;96893.38;5063949;28;20439;-75
2022/06/22 09:58:58;;;;;;;7.50;5.93;;;23.60;99.90;;;23.09;74.54;96916.91;5062806;28;20507;-76
2022/06/22 10:01:36;;;;;;;9.30;6.03;;;23.60;99.90;;;23.12;74.42;96910.81;5062763;28;20496;-76
2022/06/22 10:04:58;;;;;;;9.45;6.05;;;23.60;99.90;;;23.12;73.21;96919.72;5062291;28;20407;-75
2022/06/22 10:07:42;;;;;;;9.05;6.45;;;23.60;99.90;;;23.10;72.62;96919.25;5058181;28;20897;-75
2022/06/22 10:10:28;;;;;;;8.45;6.28;;;23.60;99.90;;;23.06;71.91;96923.00;5053755;28;20420;-75
2022/06/22 10:13:34;;;;;;;8.27;6.25;;;23.60;99.90;;;22.97;72.00;96927.75;5051657;28;20421;-75
2022/06/22 10:16:22;;;;;;;11.73;6.37;;;23.60;99.90;;;22.90;72.37;96933.72;5059591;28;20405;-76
2022/06/22 10:19:09;;;;;;;9.93;6.43;;;23.40;99.90;;;22.81;70.97;96935.78;5038065;28;20440;-76
2022/06/22 10:22:05;;;;;;;12.20;6.35;;;23.40;99.90;;;22.78;71.27;96942.63;5056119;28;20405;-75
2022/06/22 10:25:05;;;;;;;11.20;6.53;;;23.30;99.90;;;22.71;70.81;96947.78;5051552;28;20480;-76
2022/06/22 10:28:02;;;;;;;7.75;6.20;;;23.20;99.90;;;22.60;72.21;96948.59;5051463;28;20405;-76
2022/06/22 10:30:40;;;;;;;11.48;6.78;;;23.10;99.90;;;22.51;74.28;96946.00;5050895;28;20397;-74
2022/06/22 10:33:56;;;;;;;10.63;6.97;;;23.10;99.90;;;22.40;77.11;96948.38;5063803;28;21470;-76
2022/06/22 10:36:47;;;;;;;12.20;7.47;;;23.00;99.90;;;22.34;77.95;96959.72;5062252;28;20476;-75
2022/06/22 10:39:45;;;;;;;13.70;7.67;;;22.90;99.90;;;22.23;78.94;96958.63;5055632;28;20403;-75
2022/06/22 10:45:32;;;;;;;20.88;12.20;;;22.40;99.90;;;21.65;88.41;96963.22;5069184;28;20399;-76
2022/06/22 10:48:44;;;;;;;25.88;16.95;;;22.20;99.90;;;21.42;94.00;96964.69;5065833;28;20443;-76
2022/06/22 10:51:25;;;;;;;33.00;22.90;;;22.00;99.90;;;21.30;97.33;96976.19;5061753;28;20411;-76
2022/06/22 10:54:51;;;;;;;40.78;26.75;;;21.90;99.90;;;21.14;100.00;96978.66;5070317;28;20498;-76
2022/06/22 10:58:00;;;;;;;43.17;26.98;;;21.80;99.90;;;20.82;100.00;96976.72;4999129;28;20498;-77
2022/06/22 11:00:42;;;;;;;43.47;25.75;;;21.50;99.90;;;20.61;100.00;96976.66;5054947;28;20427;-76
2022/06/22 11:03:57;;;;;;;35.67;22.92;;;21.30;99.90;;;20.40;100.00;96971.25;5066428;28;20408;-77
2022/06/22 11:07:00;;;;;;;59.90;32.53;;;21.00;99.90;;;20.27;100.00;96974.13;5059667;28;20403;-77
2022/06/22 11:09:56;;;;;;;64.55;34.30;;;20.90;99.90;;;20.24;100.00;96967.47;5059257;28;20462;-77
2022/06/22 11:12:46;;;;;;;78.20;37.95;;;20.90;99.90;;;20.25;100.00;96979.03;5057250;28;20416;-77